Create Custom Reports and Graphics: Custom Report

North Region Latest Observations

Map

10 Minute Data

Winnemucca/Elko Latest Observations

Map

10 Minute Data

South Region Latest Observations

Map

10 Minute Data

Latest Observation

114 Stations

10 Minute Data
as of 9/5/26 12:45 AM PDT
Station Date Time Temp (°F) RH (%) Dew Pt (°F) Wind Spd (mph) Wind Dir (°) Wind Gust (mph) Wind Gst Dir (°) Latest Rain (In) Soil Moist (%) Soil Temp (°F) Daily Rain (In) Daily Min Temp (°F) Daily Max Temp (°F) Daily Max Wind (mph)
Hobart Mills 9/5/26 0040 44.1   3.8 80   12 38.3   7.5 0.9   0.6 NE | 50 3.2   5.3 NE | 44 0.00 7.5   0.1 61.2   1.8 0.07 43.1   4.6 57.4   0.4 16.8   3.7
Prosser Dam 9/5/26 0040 46.0   5.6 78   4 39.6   4.2 1.9   3.2 WSW | 258 3.7   7.9 SW | 231 0.00 5.2   0.0 60.3   0.9 0.16 43.6   6.5 60.0   0.5 20.2   1.7
West Incline Village 9/5/26 0040 44.1   2.1 77   4 37.3   3.3 2.7   6.6 NE | 41 4.0   20.0 NE | 49 0.00 11.7   0.1 55.9   0.9 0.07 43.5   1.1 50.7   1.5 21.6   2.4
Incline Village (Fairview Blvd) 9/5/26 0040 47.8   0.4 70   6 38.5   2.4 0.0   3.3 N | 0 0.0   15.5 WSW | 250 0.00 7.6   0.1 67.9   1.6 0.00 45.6   0.8 58.0   3.9 18.5   3.0
Incline Village (Diamond Peak) 9/5/26 0040 44.3   1.3 77   2 37.5   2.0 0.0   2.8 N | 0 0.0   5.8 ESE | 118 0.00 2.4   0.0 56.6   1.7 0.01 43.8   0.1 50.8   0.1 12.9   2.2
Incline Village (Mill Creek) 9/5/26 0040 47.8   2.8 71   1 38.8   3.0 1.3   1.5 ESE | 120 4.0   8.8 N | 1 0.00 3.0   0.0 60.7   0.7 0.00 46.9   2.5 55.5   1.4 18.9   0.0
Incline Village (Lakeshore Blvd) 9/5/26 0040 48.4   4.5 73   2 40.2   4.9 0.3   6.8 NE | 44 2.4   9.2 NW | 321 0.00 22.1   2.2 59.2   0.7 0.00 46.6   3.9 57.2   0.4 17.0   2.5
Glenbrook 9/5/26 0040 43.9   9.6 77   13 37.1   4.5 0.8   7.1 ESE | 110 2.9   17.8 SE | 125 0.00 43.5   0.2 58.3   0.0 0.00 43.3   8.3 57.8   0.0 26.3   0.5
Zephyr Cove 9/5/26 0040 46.2   5.3 71   8 37.2   2.2 0.1   1.5 ENE | 73 1.2   6.6 ENE | 71 0.00 2.8   0.0 61.3   0.1 0.00 46.0   1.8 60.4   1.6 12.5   0.6
Kingsbury Grade 9/5/26 0040 41.4   8.1 82   15 36.4   2.6 2.5   0.8 NNE | 24 4.2   7.3 NNE | 18 0.00 2.1   0.3 63.8   1.9 0.00 41.0   3.2 58.0   2.0 18.4   1.4
South Daggett Pass (Ridge) 9/5/26 0040 42.3   3.5 79   5 36.4   1.8 0.4   2.6 W | 260 2.4   11.3 SW | 234 0.00 2.2   0.0 61.1   0.8 0.00 41.1   0.5 55.0   0.6 18.4   7.0
Palomino Valley 9/5/26 0040 48.5   13.2 66   18 37.7   4.2 3.5   7.8 SE | 137 5.8   12.8 SE | 134 0.00 6.6   0.1 75.4   0.2 0.00 47.6   4.0 70.8   1.3 34.6   1.4
East Cold Springs 9/5/26 0040 50.9   1.5 62   16 38.2   7.4 7.7   2.7 WSW | 256 9.2   0.7 WSW | 258 0.00 1.5   0.1 70.4   0.4 0.01 50.1   1.8 64.0   2.1 30.8   0.1
Peavine 9/5/26 0040 52.4   1.1 55   17 36.7   5.9 16.1   3.6 SW | 222 22.8   1.0 SW | 229 0.00 4.2   0.1 66.0   1.7 0.05 50.0   1.1 60.8   1.3 48.4   1.6
West Verdi Peak 9/5/26 0140 48.0   0.2 68   19 38.1   6.0 1.8   0.9 S | 187 6.5   6.0 SE | 125 0.00 6.4   0.0 65.8   1.2 0.00 47.5   0.1 48.6   0.4 11.7   4.1
West Verdi 9/5/26 0040 53.2   1.8 60   10 39.8   5.7 0.8   5.9 ENE | 78 6.1   5.3 E | 79 0.00 6.1   0.0 75.9   2.5 0.08 52.2   1.9 63.6   0.6 27.8   8.7
South Verdi 9/5/26 0040 52.6   1.7 58   7 38.4   4.7 4.1   12.1 S | 172 12.3   13.4 S | 186 0.00 10.2   0.1 67.3   2.2 0.03 51.5   1.9 62.1   0.2 42.8   2.0
Northwest Reno 9/5/26 0040 54.2   1.1 57   11 39.3   5.6 13.6   1.8 W | 263 18.9   2.7 W | 277 0.00 24.5   0.1 72.5   1.8 0.00 53.3   1.9 63.6   1.9 51.2   0.6
North Lawton 8/28/26 1620 63.8   17.1 74   52 55.4   16.5 1.5   11.6 ESE | 121 5.1   19.0 SE | 124 0.00 - 78.2   0.0 0.05 59.2   7.5 71.9   13.3 20.4   4.6
West Reno (Mogul) 9/5/26 0040 53.9   1.5 56   12 38.7   6.3 1.4   1.0 WSW | 254 7.1   1.2 WSW | 238 0.00 19.4   0.1 76.6   0.6 0.00 53.2   2.0 65.0   1.3 30.8   1.4
Caughlin (Hunter Lake Trail) 9/5/26 0040 51.1   5.2 61   0 38.1   4.8 5.4   0.1 SW | 225 11.0   0.1 SW | 228 0.00 16.2   0.1 70.2   2.0 0.00 50.7   4.3 64.3   1.0 36.6   6.2
ArrowCreek 9/5/26 0040 50.5   8.2 63   12 38.5   2.5 5.3   9.4 WSW | 240 8.9   14.8 WSW | 257 0.00 - 32.0   0.0 0.00 49.3   51.4 65.3   20.9 30.7   7.2
Tracy 9/5/26 0040 56.8   6.3 54   10 40.2   0.4 2.6   0.1 ESE | 112 5.2   2.2 SE | 125 0.00 15.6   0.1 76.9   0.7 0.00 56.6   1.8 71.8   1.3 35.9   4.2
Virginia Highlands 9/5/26 0040 50.6   4.0 67   14 40.1   2.2 3.4   3.3 W | 268 5.8   9.3 WSW | 250 0.00 7.8   0.0 72.0   0.3 0.00 50.0   0.8 62.2   1.4 34.9   4.3
Virginia City 9/5/26 0040 51.4   2.3 61   7 38.2   1.2 2.5   11.5 S | 190 7.2   19.5 SW | 215 0.00 4.8   0.0 72.2   0.0 0.00 51.3   1.4 61.9   1.9 34.8   4.8
Six Mile Canyon 9/5/26 0040 57.9   4.5 49   8 38.8   0.2 5.7   2.1 WNW | 298 8.7   3.4 WNW | 303 0.00 12.2   0.0 75.7   0.0 0.00 56.4   2.0 72.1   1.4 35.6   0.1
Mt Rose Highway 9/5/26 0040 47.1   0.4 68   6 37.3   1.9 6.3   1.1 SW | 233 13.2   9.1 WSW | 253 0.00 7.4   0.0 59.6   1.0 0.03 44.9   0.2 56.2   0.1 33.4   1.9
Pleasant Valley 9/5/26 0040 49.5   10.4 64   15 37.9   2.9 1.0   10.7 SSW | 211 4.3   15.8 WSW | 252 0.00 2.3   0.0 73.5   2.5 0.00 48.7   7.4 66.4   1.2 30.2   6.7
New Washoe City 9/5/26 0040 52.9   5.7 61   13 39.8   0.9 1.5   6.6 NE | 34 6.2   10.2 NE | 46 0.00 3.4   0.1 70.8   0.6 0.00 51.5   1.3 65.6   1.3 33.0   3.5
Franktown Creek 9/5/26 0040 56.5   2.1 57   3 41.4   0.7 2.8   1.9 WSW | 248 10.2   7.5 SSW | 212 0.00 7.0   0.1 69.7   1.2 0.00 53.0   3.1 64.9   1.8 25.5   7.4
Musgrove Creek 9/5/26 0040 54.0   2.2 57   3 39.1   0.8 3.6   1.3 SW | 226 10.1   4.0 WNW | 290 0.00 10.3   0.1 59.7   0.2 0.01 51.9   1.1 63.3   0.6 18.5   4.1
East Carson 11/23/24 0110 28.6   28.4 - - 4.7   11.0 SW | 220 14.7   10.1 SW | 219 0.02 - 50.9   0.1 0.02 -25.9   79.1 42.9   14.6 16.0   10.7
Kings Canyon 9/5/26 0040 56.1   1.9 50   0 37.9   1.5 3.9   0.5 SSW | 206 14.7   5.8 WSW | 256 0.00 4.2   0.0 67.1   1.1 0.00 55.1   0.9 63.9   1.8 26.0   3.5
Carson City (Voltaire Canyon) 9/5/26 0040 55.9   3.7 55   7 39.9   0.0 9.3   9.6 WSW | 242 13.3   15.8 WSW | 243 0.00 2.8   0.1 76.3   0.7 0.00 55.4   2.1 66.0   3.0 40.4   0.9
Jacks Valley 9/5/26 0040 55.0   3.7 53   5 38.2   1.1 5.0   4.3 NNW | 329 8.4   9.3 NNW | 331 0.00 4.6   0.0 73.6   2.7 0.00 54.3   0.0 67.2   0.7 33.7   5.7
Genoa 9/5/26 0040 57.0   3.9 51   2 39.0   2.4 1.2   0.4 WSW | 255 5.0   4.1 W | 278 0.00 2.2   0.1 64.2   4.5 0.00 56.6   1.3 68.6   2.4 14.7   4.3
South Genoa (Walleys Hot Springs) 9/5/26 0040 55.6   6.7 53   7 38.7   2.5 3.4   0.1 NNW | 331 5.7   1.5 WNW | 289 0.00 4.8   0.1 73.2   0.5 0.00 54.3   5.9 67.9   2.7 25.0   4.8
SW Gardnerville (HWY 88) 9/5/26 0040 52.3   8.0 59   10 38.4   2.9 9.1   5.6 WSW | 242 15.4   7.3 SW | 230 0.00 2.8   0.0 67.8   0.7 0.00 49.4   3.3 67.0   3.9 31.9   4.5
Sheridan 9/5/26 0040 52.2   9.1 56   9 37.0   3.8 5.1   1.6 SSW | 209 7.8   5.3 SSW | 213 0.00 1.1   0.0 70.7   1.7 0.00 49.8   0.7 67.8   5.0 24.6   3.6
Ruhenstroth 9/5/26 0040 57.5   2.3 49   3 38.7   0.5 6.7   10.4 S | 171 10.7   13.3 SSE | 166 0.00 6.8   0.1 71.0   2.5 0.00 55.3   1.1 68.2   1.8 31.7   4.1
Double Spring 9/5/26 0040 50.0   5.5 61   9 36.9   1.2 1.9   0.1 NNE | 29 3.7   0.6 NNE | 25 0.00 25.1   0.1 71.5   0.6 0.00 48.0   9.3 66.4   0.2 32.8   5.7
North Topaz Lake 9/5/26 0040 55.8   2.6 48   0 36.5   2.7 2.1   5.3 NW | 315 5.5   9.7 NW | 320 0.00 7.5   0.1 69.4   2.3 0.00 55.5   0.9 70.8   0.4 30.9   2.0
Wild Oat Mountain 9/5/26 0040 54.3   2.1 51   0 36.4   1.9 2.7   8.5 N | 349 6.0   14.8 NNW | 327 0.00 5.7   0.1 70.4   1.3 0.00 53.6   1.5 68.3   0.3 42.5   10.8
Smith Valley 9/5/26 0040 57.4   5.6 49   8 38.4   0.5 5.5   1.9 NW | 312 7.6   7.8 NNW | 331 0.00 2.9   0.1 78.7   0.2 0.00 57.0   0.1 76.5   0.3 41.2   9.8
Pine Grove Mountain 9/5/26 0040 43.5   2.6 72   14 35.0   2.8 6.8   0.0 NNE | 31 11.6   1.9 NNE | 26 0.00 6.6   0.0 65.6   0.1 0.00 43.4   1.9 62.9   0.6 26.6   4.2
Paradise Hill 9/5/26 0040 58.1   2.1 51   0 40.0   1.9 2.8   4.2 NW | 320 4.8   8.9 NW | 311 0.00 9.8   0.1 72.2   1.0 0.00 53.1   2.7 66.6   6.0 36.3   5.7
Winnemucca 9/5/26 0040 57.0   1.9 56   3 41.7   0.3 4.1   5.4 SSW | 202 6.7   6.6 SSW | 200 0.00 5.7   0.0 73.4   0.0 0.00 52.1   2.9 68.1   5.8 22.5   2.9
NE Elko 9/5/26 0040 52.2   10.4 57   24 37.6   3.9 5.0   7.1 ENE | 74 6.5   11.2 E | 86 0.00 5.7   0.1 74.2   0.1 0.00 44.9   7.3 79.0   0.1 28.4   2.7
North Elko 9/5/26 0040 55.7   1.5 55   13 39.8   5.5 2.3   1.4 NE | 49 4.7   1.5 ENE | 61 0.00 24.6   0.0 72.8   0.0 0.00 53.7   0.2 76.8   0.1 29.1   2.6
South Elko 9/5/26 0040 54.6   1.7 57   7 39.8   1.6 1.7   6.5 SSW | 200 3.1   8.2 SW | 215 0.00 13.6   0.0 70.3   0.2 0.00 53.2   0.4 110.0 22.2   5.7
Lamoille 9/5/26 0040 49.4   8.5 63   22 37.5   3.0 4.0   5.3 ESE | 117 5.8   6.6 SE | 144 0.00 6.1   0.1 69.2   0.4 0.00 46.6   6.3 77.3   2.7 21.9   4.5
Reid Gardner Sub 9/5/26 0040 81.2   7.5 17   2 32.9   3.7 0.7   3.4 ENE | 78 4.0   2.7 ENE | 60 0.00 26.0   0.2 88.9   0.5 0.00 59.8   4.6 97.7   0.3 35.2   9.2
Corn Creek 9/5/26 0040 77.7   1.3 22   3 35.9   4.2 8.8   3.4 NE | 51 13.0   6.1 ENE | 60 0.00 3.1   0.0 88.3   0.2 0.00 70.3   1.7 91.9   0.5 40.0   1.1
Lucky Strike 9/5/26 0040 67.5   0.3 24   5 29.4   5.3 3.5   3.6 SSE | 164 6.8   5.3 S | 176 0.00 3.1   0.0 82.4   1.3 0.00 62.9   0.3 78.6   2.4 38.9   7.7
Lower Angel Peak 9/5/26 0040 63.3   0.2 29   6 30.1   5.4 5.3   1.3 SE | 140 11.9   0.0 SE | 137 0.00 3.1   0.0 73.8   0.1 0.00 55.9   2.2 75.1   1.1 27.1   4.2
Angel Peak 9/5/26 0040 54.7   0.7 31   4 24.6   2.6 22.2   13.3 S | 190 34.4   14.4 S | 185 0.00 2.5   0.0 65.7   1.2 0.00 53.3   0.6 64.8   0.2 47.1   17.8
Upper Kyle Canyon 9/5/26 0040 59.1   0.3 30   5 27.8   4.3 6.0   3.4 NE | 50 19.0   6.6 NNE | 23 0.00 7.7   0.1 75.9   0.2 0.00 56.6   1.1 67.7   1.8 29.1   6.8
Mt Charleston 9/5/26 0040 59.8   0.5 31   5 28.8   4.2 6.7   1.6 WNW | 290 17.4   2.5 W | 279 0.00 13.2   0.1 66.9   0.6 0.00 56.2   1.8 67.5   1.4 28.7   1.2
Mid Kyle Canyon 9/5/26 0040 61.0   6.4 32   11 30.7   4.9 2.5   3.8 ENE | 68 7.6   12.8 NE | 52 0.00 5.8   0.0 75.3   0.2 0.00 59.9   3.3 75.2   1.3 35.0   3.0
Blue Diamond 9/5/26 0040 77.0   1.0 27   3 40.9   1.6 8.8   1.5 NNW | 348 14.3   4.2 NNW | 336 0.00 1.2   0.0 87.6   0.5 0.00 70.7   3.8 89.7   2.3 27.8   2.2
Artesian Sub 9/5/26 0040 85.7   1.2 19   1 38.8   2.5 1.5   2.2 ESE | 113 3.5   2.0 SSE | 157 0.00 11.7   0.0 92.3   0.2 0.00 78.1   1.2 100.2   1.5 19.9   3.4
North Henderson 9/5/26 0040 87.5   1.2 19   4 40.8   6.7 8.7   4.7 SSW | 204 14.0   7.6 S | 179 0.00 10.5   0.1 95.5   0.5 0.00 79.1   1.3 99.8   0.6 33.4   5.7
Sandy Valley 9/5/26 0040 77.0   1.8 30   4 43.5   1.9 2.4   1.1 SE | 136 7.3   4.0 E | 100 0.00 7.6   0.2 89.7   0.0 0.00 68.4   0.6 90.7   1.3 24.2   1.7
Searchlight 9/5/26 0040 72.4   0.9 24   4 33.2   4.9 6.1   0.5 SSW | 206 8.6   1.4 SSW | 199 0.00 5.7   0.0 86.0   0.6 0.00 64.8   0.6 88.4   0.3 31.0   4.7
Laughlin 9/5/26 0040 90.4   2.6 14   0 35.3   2.7 4.5   2.2 SW | 234 6.3   4.0 SW | 223 0.00 4.4   0.0 99.0   0.6 0.00 78.8   1.4 103.4   1.8 32.9   6.0
31Mission Hills 9/5/26 0040 82.0   1.0 16   2 31.1   3.7 9.3   5.2 ESE | 121 11.9   4.2 SE | 125 0.00 6.3   0.2 87.6   0.4 0.00 73.8   0.4 94.2   0.5 38.5   6.0
32 Enterprise Sierra Cliffs 9/5/26 0040 78.7   0.4 23   2 37.6   1.6 12.3   1.3 SSW | 204 18.9   2.0 SW | 222 0.00 1.4   0.0 85.7   0.6 0.00 69.6   3.2 91.1   1.3 24.1   6.6
29 Calico Basin 9/5/26 0040 76.6   0.5 24   1 36.7   1.8 4.3   5.9 SSW | 207 7.7   8.2 SW | 214 0.00 2.4   0.0 86.5   0.4 0.00 68.3   0.6 87.6   1.5 26.7   2.9
28 Indian Springs 9/5/26 0040 71.1   1.7 23   5 31.9   4.3 2.0   0.3 NNW | 347 6.6   0.4 SSE | 166 0.00 4.4   0.1 86.6   1.5 0.00 65.0   3.4 92.9   0.8 29.9   3.1
30 Jean 9/5/26 0040 75.0   0.7 25   0 37.3   1.0 5.3   2.7 SSW | 206 10.2   3.8 SSW | 196 0.00 4.9   0.1 85.8   0.2 0.00 67.3   1.8 91.8   2.1 29.1   0.1
VC Highlands NW 9/5/26 0040 48.4   4.2 67   14 38.0   1.9 1.8   1.8 WSW | 244 5.0   4.3 WSW | 238 0.00 1.5   0.1 62.7   2.8 0.00 48.3   0.5 61.6   1.4 27.1   1.9
Glenbrook-Spooner Summit 9/5/26 0040 41.3   7.1 79   15 35.4   1.6 4.9   3.6 W | 261 8.2   11.7 WSW | 255 0.00 7.7   0.0 65.4   0.2 0.00 40.7   5.6 55.5   1.2 23.8   5.8
Hobo Hot Springs 9/5/26 0040 48.2   13.2 66   23 37.5   1.4 2.5   10.6 NW | 312 5.0   16.9 WNW | 289 0.00 1.0   0.1 69.3   1.5 0.00 46.8   2.8 70.0   0.9 27.2   10.8
Jack Valley Ranch 2 9/5/26 0040 54.0   4.0 53   5 37.3   1.1 6.0   0.3 N | 2 8.1   4.8 N | 11 0.00 2.2   0.1 73.2   1.1 0.00 52.2   1.9 67.0   0.8 26.3   3.9
Genoa North 2 9/5/26 0040 55.7   4.3 49   3 36.8   2.1 6.6   0.3 WSW | 258 11.6   6.0 WSW | 248 0.00 0.8   0.0 73.0   2.1 0.00 54.5   0.9 68.5   1.5 23.7   10.3
Mottsville 2 9/5/26 0040 56.4   4.8 47   3 36.4   2.8 3.3   2.4 WNW | 284 8.9   3.1 W | 267 0.00 1.4   0.0 71.2   1.0 0.00 50.1   0.6 68.3   2.9 28.4   3.7
Kingsbury Village 3 9/5/26 0040 38.4   6.4 84   12 34.2   2.4 2.4   0.6 NNE | 25 3.4   13.9 NE | 47 0.00 3.3   0.0 58.4   2.4 0.00 38.2   2.1 52.9   2.8 15.5   1.7
Kingsbury-Benjamin Dr 2 9/5/26 0040 42.6   4.3 75   6 35.2   2.0 0.0   4.2 W | 278 1.0   21.7 SW | 223 0.00 2.9   0.1 64.5   3.1 0.00 41.6   0.2 55.6   2.7 16.5   8.4
Smith Valley-Wellington 9/5/26 0040 57.6   4.7 48   9 38.1   0.8 0.6   7.1 ESE | 123 3.6   10.3 ESE | 106 0.00 3.6   0.0 80.8   0.1 0.00 56.6   0.8 75.2   0.5 36.9   5.8
Sheridan South 2 9/5/26 0040 56.4   5.0 49   4 37.4   2.4 5.2   4.1 SSW | 213 17.3   1.5 SSW | 211 0.00 0.4   0.0 70.4   2.9 0.00 52.2   4.9 65.8   5.0 28.1   3.1
Silver Springs 9/5/26 0040 59.5   5.1 47   10 39.4   1.4 9.6   6.7 NNW | 330 13.4   12.0 N | 349 0.00 5.0   0.0 77.3   1.0 0.00 59.3   5.2 74.9   1.2 42.5   0.0
Fernley 9/5/26 0040 54.8   9.2 53   16 38.3   0.7 4.0   5.5 SSW | 207 6.7   10.8 SSW | 203 0.00 3.2   0.0 74.4   0.6 0.00 54.5   0.6 74.6   0.9 36.6   3.9
Spanish Springs 9/5/26 0040 51.9   8.6 61   11 38.7   2.6 1.5   4.0 W | 280 3.0   8.2 W | 281 0.00 10.2   0.1 75.5   0.4 0.00 51.2   6.2 70.2   0.1 26.2   0.7
Suttcliffe South 2 9/5/26 0040 53.3   5.6 59   2 39.2   6.1 5.4   0.8 NW | 320 7.5   4.0 NW | 325 0.00 4.1   0.0 70.3   0.6 0.00 52.0   4.6 72.3   1.2 35.0   7.6
Lemmon Valley North 9/5/26 0040 54.2   0.1 54   16 38.0   6.7 8.5   5.1 SW | 222 14.4   8.0 SSW | 202 0.00 2.0   0.0 70.2   0.4 0.02 52.2   3.3 65.5   1.1 29.7   2.7
Lemmon Valley NW 3 9/5/26 0040 53.1   3.3 55   6 37.5   6.0 2.3   9.6 NNE | 17 5.0   13.3 N | 7 0.00 1.2   0.0 73.1   0.1 0.00 52.6   0.2 66.0   2.7 31.3   0.9
VC Highlands North 9/5/26 0040 48.3   6.4 66   17 37.4   1.4 0.2   5.8 NNW | 327 1.5   12.2 WNW | 290 0.00 4.5   0.2 64.9   3.8 0.00 47.4   2.8 62.6   0.9 27.4   2.6
Upper Voltaire Cyn 9/5/26 0040 53.3   2.3 54   4 37.2   0.1 7.6   5.2 SW | 224 15.5   5.4 WSW | 237 0.00 1.1   0.1 66.4   3.2 0.00 51.2   2.3 60.8   3.3 35.9   7.6
Yerington NW 9/5/26 0040 55.1   6.4 56   13 39.7   0.9 3.0   4.1 SW | 217 7.6   3.6 SSE | 166 0.00 7.2   0.0 74.4   0.1 0.00 54.4   4.9 75.3   0.1 32.9   8.8
Spanish Springs SW 9/5/26 0040 49.9   8.9 61   7 36.9   5.4 2.4   4.1 WSW | 240 3.7   8.2 WSW | 257 0.00 1.4   0.0 75.0   0.5 0.00 49.6   6.8 69.0   1.4 27.0   8.2
Cosgrave 2 8/27/26 0750 62.9   4.1 34   3 33.8   1.4 2.6   0.5 WSW | 246 4.1   1.0 W | 267 0.00 3.8   0.1 77.4   2.9 0.00 62.7   3.3 77.4   3.5 11.2   3.9
Winnemucca-Grass Valley 2 9/5/26 0040 56.6   2.3 51   1 38.7   1.9 3.0   5.2 WSW | 247 5.3   6.5 W | 261 0.00 7.7   0.1 65.6   1.9 0.00 48.6   0.4 69.3   5.1 26.6   5.2
Winnemucca-Dutch Flat Rd 9/5/26 0040 57.0   2.4 52   3 39.8   0.5 6.7   0.9 WSW | 239 12.4   1.0 WSW | 246 0.00 6.2   0.0 73.8   0.4 0.00 50.8   3.4 67.9   6.7 29.4   1.4
Paradise Valley 2 9/5/26 0040 58.2   1.7 57   9 43.2   3.1 2.4   1.4 S | 177 4.6   0.4 S | 183 0.00 12.6   0.1 73.8   2.2 0.00 48.4   3.9 70.5   2.0 27.4   3.2
Golconda 2 9/5/26 0040 58.3   3.0 53   7 41.0   1.0 9.3   0.1 WNW | 292 14.0   0.4 WNW | 289 0.00 1.8   0.0 71.4   3.5 0.00 50.8   2.3 69.6   5.5 29.6   3.8
Battle Mountain - South 9/5/26 0040 54.2   5.8 58   13 39.8   1.2 2.7   1.1 SSE | 148 4.3   1.0 SE | 135 0.00 9.2   0.1 75.2   0.3 0.00 50.9   1.2 77.2   1.4 30.6   3.5
Geiger Summit 9/5/26 0040 46.9   4.0 100   0 46.9   4.0 4.1   4.6 SSW | 194 8.6   6.1 WSW | 240 0.00 6.3   0.3 62.7   0.6 0.00 46.7   0.2 59.6   1.3 30.4   4.7
Combs Canyon 3 9/5/26 0040 57.0   2.6 49   4 37.9   0.1 2.2   4.4 SSE | 160 5.3   8.8 SE | 144 0.00 1.0   0.0 74.0   0.0 0.00 55.6   1.4 68.4   1.3 27.0   2.0
Clear Creek 9/5/26 0040 54.1   2.1 53   4 37.4   0.1 7.5   4.0 SW | 230 15.6   7.3 SSW | 205 0.00 3.4   0.0 66.9   2.5 0.00 50.8   2.5 61.5   3.4 29.7   1.5
Eastlake 2 9/5/26 0040 58.0   1.3 47   1 37.8   0.9 10.2   0.4 SW | 217 17.4   0.5 SW | 220 0.00 3.4   0.1 72.6   0.8 0.00 56.8   2.2 67.6   0.6 29.2   0.1
Lovelock-Colado 2 9/5/26 0040 58.8   6.8 41   18 35.1   3.1 8.2   5.5 NE | 46 12.0   8.0 NE | 43 0.00 - 75.2   0.7 0.00 45.5   6.0 74.3   3.1 20.9   4.1
Spanish Springs NW 9/5/26 0040 53.2   7.2 59   8 39.2   3.0 3.3   3.0 NW | 325 5.6   7.3 NW | 312 0.00 12.2   0.1 67.6   1.1 0.00 53.0   4.2 70.2   1.7 25.7   5.2
Battle Mountain NW 9/5/26 0040 54.3   5.8 56   11 39.1   0.0 3.3   2.1 NW | 325 4.5   5.8 NNW | 330 0.00 8.7   0.1 74.4   1.9 0.00 54.0   1.8 72.8   5.6 26.1   8.1
Austin 2 9/4/26 2340 47.3   1.3 64   12 36.0   3.7 4.7   0.0 SW | 230 6.2   0.4 SW | 233 0.00 2.4   0.0 65.1   0.9 0.00 37.6   0.8 74.2   0.8 24.7   12.4
Elko-Osino 9/5/26 0040 52.6   4.9 54   16 36.2   4.4 1.5   0.5 NE | 53 3.5   1.6 E | 84 0.00 1.5   0.0 78.2   0.2 0.00 44.2   7.9 79.3   0.7 23.2   4.1
Elko-Bill Fishpond 2 9/5/26 0040 48.9   11.4 62   29 36.4   5.3 5.2   1.5 SE | 142 6.7   4.6 SSE | 155 0.00 3.5   0.0 69.5   0.0 0.00 47.8   3.9 78.4   1.5 17.9   9.6
Spring Creek SE 2 9/5/26 0040 54.2   2.5 53   13 37.3   5.0 4.5   0.9 E | 82 6.6   1.0 ENE | 76 0.00 0.3   0.0 70.7   0.0 0.00 44.2   7.1 78.3   1.2 28.4   1.0
Spring Creek NW 9/5/26 0040 54.4   4.8 52   12 37.4   2.5 4.1   6.8 N | 350 5.3   10.8 NNW | 344 0.00 2.3   0.0 74.4   0.4 0.00 49.2   2.6 78.1   1.4 23.5   1.0
Elko-Moleen 9/5/26 0040 53.9   3.9 55   11 38.0   2.2 5.0   0.3 WSW | 237 7.6   0.4 SW | 224 0.00 6.3   0.1 78.0   0.1 0.00 43.6   3.6 79.4   0.1 21.9   3.6
Elko-West 9/5/26 0040 48.4   6.2 61   12 35.6   0.2 1.2   0.3 S | 185 2.6   0.1 S | 188 0.00 33.7   0.1 68.7   0.3 0.00 41.6   3.9 80.3   0.9 27.1   2.6
Elko-Adobe Creek 9/5/26 0040 47.0   8.6 70   26 37.7   3.7 6.4   2.6 NE | 40 8.2   6.0 NNE | 22 0.00 18.6   0.1 69.9   0.7 0.00 46.8   1.6 72.4   1.9 26.0   8.4
Tuscarora SW 9/5/26 0040 49.2   3.9 68   14 39.3   2.0 5.6   4.2 ESE | 110 6.2   10.9 ESE | 113 0.00 6.8   0.1 70.8   1.5 0.00 42.7   4.5 70.0   2.7 25.2   5.8
Elko-Monument Peak 9/5/26 0040 46.2   11.9 68   28 36.3   2.5 4.0   1.4 WNW | 286 5.5   2.0 WNW | 286 0.00 4.1   0.1 70.6   0.0 0.00 38.0   6.2 74.3   1.9 26.4   3.0
Wild Horse 9/5/26 0040 47.0   8.3 71   22 38.2   1.5 3.4   1.6 NNE | 29 6.3   0.5 NE | 40 0.00 4.6   0.0 66.3   1.0 0.00 46.6   1.1 67.7   1.9 26.0   3.7
Max     90.4 100 46.9 22.2 - 34.4 - 0.00 43.5 99.0 0.16 79.1 110.0 51.2
Avg     55.5 54 37.5 4.4 - 8.1 - 0.00 7.0 71.8 - - - -
Min     38.4 14 24.6 0.0 - 0.0 - 0.00 0.3 32.0 0.00 37.6 48.6 11.7

Latest Observation

114 Stations

Daily Data
as of 9/5/26 12:45 AM PDT
Station Date Daily Max Temp (°F) Daily Min Temp (°F) Daily Max RH (%) Daily Min RH (%) Wind Spd (mph) Wind Dir (°) Daily Max Wind (mph) Max Wind Dir (°) Time of Max Wind Daily Rain (In) Weekly Precip (In) Season Precip (In) Soil Moist (%) Fuel Temp (°F) Fuel Moisture (%) MinBV Day (V)
Hobart Mills 9/3/26 57.0   4.8 47.7   3.1 93   26 49   12 3.1   0.0 SSW | 212 20.5   0.9 SW | 234 1645 0.03 0.06 - 7.5   0.0 52.3   0.2 11   3 12.5   0.0
Prosser Dam 9/3/26 59.5   2.2 50.1   8.6 82   10 42   5 5.0   0.9 S | 189 22.0   7.6 SE | 145 2121 0.00 0.09 - 5.2   0.1 54.6   1.6 9   1 12.6   0.0
West Incline Village 9/3/26 52.2   1.8 44.5   4.1 83   8 31   15 4.0   0.4 SW | 215 24.0   2.9 S | 171 0034 0.00 0.26 - 11.7   0.0 49.4   0.7 8   1 12.4   0.0
Incline Village (Fairview Blvd) 9/3/26 54.1   3.4 46.4   3.6 79   9 34   8 2.8   0.0 WSW | 248 21.5   0.2 SW | 227 1723 0.00 0.33 - 7.6   0.0 52.5   2.1 8   1 12.6   0.0
Incline Village (Diamond Peak) 9/3/26 50.7   2.9 43.6   3.4 82   7 37   10 5.2   0.9 NW | 312 15.2   0.4 WNW | 296 1256 0.00 0.03 - 2.5   0.0 -11.7   0.0 - 12.4   0.0
Incline Village (Mill Creek) 9/3/26 57.0   1.6 49.4   4.0 75   6 32   10 3.5   0.1 WSW | 247 18.9   0.1 WNW | 291 0820 0.00 0.33 - 2.9   0.0 -8.7   0.0 - 12.5   0.0
Incline Village (Lakeshore Blvd) 9/3/26 56.8   0.4 50.5   3.0 84   9 32   18 5.6   0.1 WSW | 240 19.5   1.0 SSW | 212 2229 0.00 0.30 - 25.3   3.0 54.3   1.3 11   1 12.4   0.0
Glenbrook 9/3/26 57.8   1.3 51.5   2.8 71   2 38   1 9.0   1.1 WSW | 237 26.8   0.6 WSW | 253 2333 0.00 0.30 - 43.2   0.1 54.8   0.1 15   0 12.6   0.0
Zephyr Cove 9/3/26 58.7   2.6 47.8   2.6 65   1 31   3 1.0   0.0 SE | 141 13.2   1.5 SW | 222 1033 0.00 0.32 - 2.8   0.0 54.0   1.0 8   1 12.6   0.0
Kingsbury Grade 9/3/26 60.1   0.5 44.2   2.8 69   5 32   0 2.3   0.1 W | 267 17.0   3.5 WSW | 249 1205 0.00 0.28 - 2.3   0.0 54.8   2.5 8   1 12.5   0.0
South Daggett Pass (Ridge) 9/3/26 55.6   0.1 40.6   2.1 76   5 36   1 3.0   0.3 WNW | 282 25.3   3.0 W | 265 1409 0.00 0.29 - 2.2   0.0 48.6   0.3 9   1 12.5   0.0
Palomino Valley 9/3/26 72.1   2.8 51.7   2.4 52   5 28   6 10.1   2.0 SW | 222 33.3   0.1 WSW | 237 1516 0.00 0.03 - 6.6   0.1 64.6   4.3 7   1 12.5   0.0
East Cold Springs 9/3/26 66.1   0.1 51.9   5.3 78   21 37   8 11.5   1.0 WSW | 242 30.7   0.2 SW | 230 1407 0.00 0.00 - 1.5   0.0 60.9   4.0 7   1 12.6   0.0
Peavine 9/3/26 62.1   0.7 51.1   0.1 74   29 30   4 20.6   3.0 SW | 228 46.8   5.3 WSW | 247 0115 0.01 0.01 - 4.3   0.0 57.4   3.0 6   2 13.0   0.0
West Verdi Peak 9/4/26 57.9   0.7 46.6   0.6 91   3 54   11 3.3   0.5 S | 169 19.9   4.1 SE | 146 0334 0.22 0.26 - 6.5   0.0 50.6   2.5 43   34 12.5   0.0
West Verdi 9/3/26 64.2   1.3 53.8   3.7 75   22 32   2 7.8   0.2 S | 191 36.5   1.1 S | 180 1428 0.01 0.07 - 6.2   0.0 60.3   0.1 5   2 12.6   0.0
South Verdi 9/3/26 61.9   2.0 52.8   3.7 71   17 25   5 21.0   2.4 SW | 224 44.8   0.1 SW | 218 2035 0.00 0.08 - 10.3   0.1 58.8   1.4 6   1 12.6   0.0
Northwest Reno 9/3/26 65.5   0.2 55.2   3.2 69   16 32   5 23.6   0.1 WSW | 244 50.6   2.6 W | 260 0127 0.00 0.05 - 24.7   0.3 -17.8   0.0 - 12.6   0.0
North Lawton 8/27/26 85.2   2.6 66.7   6.0 35   16 18   2 8.9   1.0 SW | 230 25.0   2.4 SW | 236 1526 0.00 0.00 - - - - 12.6   0.0
West Reno (Mogul) 9/3/26 66.3   1.5 55.1   4.0 70   19 28   0 8.0   2.1 WSW | 258 32.2   1.1 WSW | 241 1100 0.00 0.00 - 19.5   0.1 64.5   5.5 2   0 12.6   0.0
Caughlin (Hunter Lake Trail) 9/3/26 65.2   0.4 55.0   5.0 66   15 31   7 10.2   2.3 SW | 216 42.8   3.2 SW | 220 1417 0.00 0.12 - 16.3   0.2 61.7   3.6 7   0 12.6   0.0
ArrowCreek 9/3/26 86.2   19.6 -2.1   52.6 70   21 3   17 11.8   5.1 S | 175 37.9   2.4 S | 170 1332 0.01 0.15 - - - - 11.0   1.4
Tracy 9/3/26 73.1   1.2 58.3   2.1 47   6 27   8 10.5   0.1 WSW | 256 31.7   2.4 WSW | 253 1530 0.00 0.09 - 15.7   0.2 67.5   4.0 6   0 12.7   0.0
Virginia Highlands 9/3/26 63.6   3.5 49.2   0.5 64   6 35   1 6.3   2.0 SW | 228 30.6   6.0 WSW | 243 1614 0.00 0.12 - 7.9   0.1 59.4   6.5 7   1 12.5   0.0
Virginia City 9/3/26 63.8   3.5 49.9   2.6 54   3 34   8 12.9   4.4 S | 191 39.6   9.2 SSW | 198 1428 0.00 0.12 - 4.7   0.0 59.8   5.7 6   1 12.6   0.0
Six Mile Canyon 9/3/26 73.5   3.4 54.5   0.1 41   2 25   7 11.4   2.4 WSW | 246 35.5   9.7 WSW | 241 1617 0.00 0.10 - 12.1   0.1 67.8   5.9 4   1 12.7   0.0
Mt Rose Highway 9/3/26 56.0   0.7 44.7   1.6 84   19 29   5 5.9   0.6 S | 189 35.3   0.1 SW | 232 2128 0.03 0.26 - 7.4   0.0 52.7   1.2 9   3 12.5   0.0
Pleasant Valley 9/3/26 67.6   1.3 56.1   1.6 54   6 28   1 13.8   2.3 SSW | 210 36.9   2.1 SW | 235 1350 0.00 0.14 - 2.3   0.0 66.7   4.6 8   0 12.6   0.0
New Washoe City 9/3/26 66.9   1.0 52.8   0.5 56   3 32   2 9.5   0.7 SW | 215 29.6   2.1 WSW | 240 1228 0.00 0.08 - 3.5   0.0 60.7   2.1 8   1 12.6   0.0
Franktown Creek 9/3/26 66.7   1.0 56.1   2.4 59   5 28   2 5.5   0.7 SSW | 204 32.9   3.6 S | 188 0810 0.00 0.14 - 7.0   0.0 62.2   2.2 8   0 12.6   0.0
Musgrove Creek 9/3/26 63.9   0.6 50.8   1.3 62   1 31   4 2.4   0.4 NW | 309 22.6   1.0 NE | 40 1051 0.00 0.21 - 10.2   0.0 60.3   3.3 8   1 12.5   0.0
East Carson 11/22/24 63.8   0.3 41.7   4.6 85   21 21   9 14.9   6.0 SW | 224 46.6   12.7 S | 171 1835 0.05 0.05 4.48 2.5   0.0 53.9   0.3 9   0 12.6   0.0
Kings Canyon 9/3/26 65.7   0.0 54.1   3.1 50   1 30   1 5.0   0.2 S | 181 29.4   1.4 SSW | 197 1038 0.00 0.13 - 4.1   0.0 60.0   0.8 5   1 12.6   0.0
Carson City (Voltaire Canyon) 9/3/26 68.9   0.8 53.3   0.4 50   4 27   3 16.1   2.1 SSW | 200 41.2   8.4 S | 188 1751 0.00 0.00 - 2.8   0.0 -10.9   0.0 - 12.6   0.0
Jacks Valley 9/3/26 67.9   0.6 54.3   2.0 50   3 27   7 11.4   1.5 WSW | 240 39.4   3.3 SW | 232 0945 0.00 0.24 - 4.6   0.0 63.7   2.4 3   0 12.6   0.0
Genoa 9/3/26 71.0   0.2 55.3   2.4 50   3 25   2 2.2   0.8 SSW | 204 19.0   2.7 S | 180 1034 0.00 0.15 - 2.3   0.0 63.4   2.5 8   1 12.4   0.0
South Genoa (Walleys Hot Springs) 9/3/26 70.6   0.3 48.4   5.8 57   8 24   4 6.9   0.9 SW | 218 29.8   1.9 SSW | 203 1329 0.00 0.13 - 4.9   0.0 66.3   0.0 6   1 12.6   0.0
SW Gardnerville (HWY 88) 9/3/26 70.8   0.6 46.1   5.7 65   14 29   7 11.2   2.5 SSE | 152 36.4   6.1 S | 174 1624 0.00 0.03 - 2.8   0.0 61.4   0.4 8   1 9.0   0.5
Sheridan 9/3/26 72.7   1.4 49.0   1.8 49   2 28   9 6.6   1.8 SSE | 148 28.2   1.1 ESE | 116 2314 0.00 0.05 - 1.1   0.0 63.6   1.5 3   1 12.5   0.0
Ruhenstroth 9/3/26 70.0   0.9 54.3   0.1 47   3 21   1 14.8   1.8 S | 186 35.8   4.5 S | 176 1809 0.00 0.06 - 6.8   0.0 64.5   1.8 6   1 12.6   0.0
Double Spring 9/3/26 66.6   1.7 38.7   0.2 66   6 31   10 6.4   0.3 W | 278 27.1   3.9 W | 275 1221 0.00 0.14 - 25.0   0.3 57.6   2.2 7   1 12.6   0.0
North Topaz Lake 9/3/26 71.2   2.1 54.5   1.8 49   8 27   6 8.0   1.1 SSW | 211 28.9   1.0 S | 182 1352 0.00 0.22 - 7.6   0.1 66.4   3.8 5   1 12.6   0.0
Wild Oat Mountain 9/3/26 68.7   1.0 52.0   2.2 51   11 24   3 10.9   0.7 SW | 220 31.7   2.2 SW | 230 1335 0.00 0.13 - 5.7   0.0 62.4   3.0 5   1 12.6   0.0
Smith Valley 9/3/26 76.2   3.3 57.2   3.4 42   11 21   4 8.2   0.7 SW | 221 31.4   0.7 SSW | 205 1751 0.00 0.12 - 2.8   0.0 70.5   3.4 6   1 12.6   0.0
Pine Grove Mountain 9/3/26 63.5   2.4 45.3   1.9 59   26 28   8 8.6   0.7 SSW | 200 30.8   2.1 WSW | 243 1617 0.00 0.07 - 6.7   0.2 58.2   4.0 4   1 12.6   0.0
Paradise Hill 9/3/26 72.6   5.0 55.8   1.6 52   9 26   10 9.9   5.6 WSW | 238 30.6   9.3 SW | 234 1346 0.00 0.02 - 9.9   0.2 67.2   4.9 5   1 12.6   0.0
Winnemucca 9/3/26 73.8   4.6 55.0   3.1 56   13 24   6 7.3   2.9 SSW | 208 25.3   8.0 WSW | 244 1811 0.00 0.02 - 5.7   0.1 66.4   2.7 5   1 12.6   0.0
NE Elko 9/3/26 78.8   7.7 52.2   0.1 36   7 17   1 6.5   1.8 SW | 236 25.7   1.2 SSW | 212 1224 0.00 0.02 - 5.7   0.0 68.8   3.1 3   0 12.6   0.0
North Elko 9/3/26 76.7   7.7 53.5   2.9 43   13 17   1 8.1   1.0 SW | 234 26.4   10.4 SSW | 200 1205 0.00 0.05 - 24.6   0.1 67.4   4.2 7   0 12.6   0.0
South Elko 9/3/26 - 53.6   2.6 100   15 18   2 7.3   0.6 SW | 219 28.0   3.5 WSW | 244 1505 0.00 0.02 - 13.6   0.1 65.5   5.5 5   1 12.5   0.0
Lamoille 9/3/26 74.6   4.6 52.9   1.3 44   8 18   4 10.1   1.9 SW | 219 26.3   1.6 SW | 222 1359 0.00 0.02 - 6.3   0.1 67.7   4.7 5   1 12.8   0.0
Reid Gardner Sub 9/3/26 97.4   0.5 64.4   9.5 34   16 11   5 5.8   4.2 S | 176 26.0   6.8 SE | 141 1237 0.00 0.00 - 24.8   0.5 86.2   1.5 1   0 12.6   0.0
Corn Creek 9/3/26 92.4   1.8 68.6   0.1 27   9 11   5 12.0   6.1 ESE | 108 41.1   15.6 ENE | 70 1347 0.00 0.00 - 3.1   0.0 81.5   2.5 1   0 12.5   0.0
Lucky Strike 9/3/26 81.0   1.0 62.6   0.9 26   8 9   4 7.5   1.1 SSW | 196 31.2   3.1 SE | 137 1327 0.00 0.00 - 3.1   0.0 73.1   0.9 1   0 12.6   0.0
Lower Angel Peak 9/3/26 76.2   1.2 53.6   0.1 29   10 14   7 6.4   0.8 SSE | 166 22.8   0.4 SE | 140 1553 0.00 0.00 - 3.1   0.0 66.8   0.1 1   0 12.6   0.0
Angel Peak 9/3/26 65.1   1.7 53.8   3.0 29   6 14   8 8.5   0.1 SSE | 166 29.3   15.9 WSW | 249 2348 0.00 0.00 - 2.4   0.1 61.0   0.5 3   0 12.5   0.0
Upper Kyle Canyon 9/3/26 69.5   1.4 57.6   1.3 28   8 14   8 7.0   1.0 NW | 309 35.9   0.6 WNW | 282 2114 0.00 0.00 - 7.7   0.0 70.5   3.4 3   0 12.6   0.0
Mt Charleston 9/3/26 68.9   1.1 58.0   2.0 30   9 14   6 6.6   0.5 WSW | 239 27.4   4.5 WNW | 283 1928 0.00 0.00 - 13.2   0.1 66.3   0.9 10   0 12.6   0.0
Mid Kyle Canyon 9/3/26 76.5   0.8 56.6   0.5 26   8 14   7 7.2   2.9 W | 262 32.0   1.2 WNW | 282 1152 0.00 0.00 - 5.8   0.0 71.1   0.7 4   0 12.7   0.0
Blue Diamond 9/3/26 87.4   0.4 66.9   0.1 29   10 14   7 7.8   2.1 WNW | 288 30.1   3.3 WNW | 298 1738 0.00 0.00 - 1.2   0.0 - - 12.6   0.0
Artesian Sub 9/3/26 98.7   1.0 76.9   0.7 22   7 11   5 6.1   0.9 SSE | 151 23.2   0.7 SE | 146 1307 0.00 0.00 - 11.7   0.0 - 0   0 12.6   0.0
North Henderson 9/3/26 99.2   1.4 77.8   2.6 24   8 10   3 7.5   2.9 S | 184 27.7   1.2 S | 179 1533 0.00 0.00 - 10.5   0.0 91.5   1.0 1   0 12.6   0.0
Sandy Valley 9/3/26 89.4   0.0 69.0   0.8 35   10 16   7 5.6   0.6 SSW | 194 22.5   1.6 SW | 228 1519 0.00 0.00 - 7.8   0.2 80.8   0.3 3   0 12.6   0.0
Searchlight 9/3/26 88.1   1.8 65.4   0.2 30   6 12   3 8.7   1.5 S | 185 26.3   0.9 SSE | 168 1440 0.00 0.00 - 5.8   0.1 79.6   1.4 1   0 12.5   0.0
Laughlin 9/3/26 101.6   1.7 77.4   3.1 27   16 10   0 6.8   0.7 S | 189 27.0   3.1 SSE | 155 1621 0.00 0.00 - 4.5 89.3   2.7 3   1 12.7   0.0
31Mission Hills 9/3/26 93.7   0.9 74.2   0.6 21   5 9   4 9.7   0.4 SSE | 166 32.5   0.6 S | 173 1458 0.00 0.00 - 6.7   0.3 85.9   1.2 3   0 13.2   0.0
32 Enterprise Sierra Cliffs 9/3/26 89.8   0.7 72.8   0.5 26   7 11   6 12.3   3.6 SSW | 202 30.7   5.7 SW | 227 1411 0.00 0.00 - 1.3   0.0 83.4   0.8 3   0 13.2   0.0
29 Calico Basin 9/3/26 86.1   0.4 67.7   1.5 23   7 12   7 10.5   6.3 SSW | 196 29.6   13.7 SSW | 204 1446 0.00 0.00 - 2.4   0.0 80.3   0.7 2   0 13.2   0.0
28 Indian Springs 9/3/26 92.1   1.3 61.6   1.2 22   5 9   5 5.7   2.5 W | 264 33.0   1.4 SW | 233 1802 0.00 0.00 - 4.5   0.1 80.1   0.4 3   0 13.2   0.0
30 Jean 9/3/26 89.7   0.3 65.5   1.9 29   8 11   5 10.8   2.7 SW | 226 28.9   7.3 WSW | 257 1609 0.00 0.00 - 5.0   0.1 81.1   0.7 2   0 13.1   0.0
VC Highlands NW 9/3/26 63.0   5.4 48.8   1.8 62   3 32   3 5.2   0.9 SW | 225 25.2   7.2 WSW | 242 1509 0.00 0.12 - 1.6   0.0 57.8   6.2 7   1 13.1   0.0
Glenbrook-Spooner Summit 9/3/26 56.7   0.5 46.4   4.9 66   3 33   2 8.2   0.1 W | 260 29.7   1.1 WSW | 237 1149 0.00 0.31 - 7.8   0.1 53.9   0.5 7   0 13.2   0.0
Hobo Hot Springs 9/3/26 70.9   0.7 49.6   1.1 52   3 24   4 10.1   1.4 SW | 222 38.0   3.9 SW | 222 1249 0.00 0.13 - 1.0   0.0 64.2   3.4 7   0 13.2   0.0
Jack Valley Ranch 2 9/3/26 67.8   0.7 54.1   2.5 51   4 24   6 6.0   0.2 SW | 220 30.2   5.1 WSW | 246 1257 0.00 0.23 - 2.1   0.0 64.1   2.8 6   1 13.2   0.0
Genoa North 2 9/3/26 70.0   0.5 53.5   0.2 48   1 23   1 6.0   0.4 SSW | 207 34.0   5.2 WSW | 238 1125 0.00 0.10 - 0.8   0.0 64.4   1.6 6   1 13.2   0.0
Mottsville 2 9/3/26 71.2   0.9 49.5   3.3 47   2 26   7 4.0   0.9 SSE | 162 24.7   12.2 S | 184 1138 0.00 0.18 - 1.3   0.0 62.4   1.0 7   0 13.2   0.0
Kingsbury Village 3 9/3/26 55.7   1.1 40.4   1.3 75   2 32   4 2.7   0.3 NW | 315 17.3   2.1 NNW | 339 0037 0.00 0.29 - 3.2   0.0 49.0   0.8 10   1 13.2   0.0
Kingsbury-Benjamin Dr 2 9/3/26 58.3   0.9 41.9   1.4 71   4 33   1 2.7   0.1 W | 259 25.0   1.7 SW | 219 1054 0.00 0.29 - 3.0   0.1 51.4   1.1 8   1 13.1   0.0
Smith Valley-Wellington 9/3/26 74.8   1.9 57.4   2.6 41   5 22   7 8.7   0.6 SW | 229 31.0   3.4 WNW | 290 1551 0.00 0.03 - 3.5   0.0 68.3   2.2 6   1 13.2   0.0
Sheridan South 2 9/3/26 70.9   0.5 47.3   1.2 52   7 26   7 7.6   1.4 SSE | 159 31.2   0.2 ESE | 121 2201 0.00 0.07 - 0.5   0.0 63.8   2.2 7   1 13.2   0.6
Silver Springs 9/3/26 76.1   1.7 54.2   0.1 39   5 22   5 15.2   2.0 WSW | 248 42.5   3.1 WSW | 243 1539 0.00 0.08 - 4.9   0.1 68.1   3.4 7   1 13.1   0.0
Fernley 9/3/26 75.5   1.6 54.0   0.8 42   3 22   5 9.5   0.8 WSW | 243 40.5   10.9 WNW | 288 1454 0.00 0.04 - 3.1   0.0 67.1   4.1 6   1 13.1   0.0
Spanish Springs 9/3/26 70.3   1.8 57.4   4.9 54   8 27   5 7.0   0.5 SW | 224 27.0   1.1 W | 262 1421 0.00 0.06 - 10.2   0.2 66.8   4.0 7   1 13.2   0.0
Suttcliffe South 2 9/3/26 71.1   0.5 56.5   8.8 65   15 25   4 15.6   3.9 WSW | 245 42.6   11.6 WSW | 251 1726 0.00 0.00 - 4.2   0.1 64.7   3.1 7   1 13.1   0.0
Lemmon Valley North 9/3/26 66.5   0.6 48.9   3.2 76   24 34   10 11.0   0.3 SSW | 199 32.4   1.5 SSW | 200 1139 0.00 0.02 - 2.0   0.0 60.4   3.1 7   1 13.2   0.0
Lemmon Valley NW 3 9/3/26 68.7   1.1 52.8   3.1 65   16 33   11 10.8   3.1 WSW | 240 32.2   6.1 SW | 230 1506 0.00 0.02 - 1.2   0.0 61.5   2.2 7   1 13.2   0.0
VC Highlands North 9/3/26 63.6   4.1 50.2   7.3 58   3 31   2 7.5   2.6 SW | 219 30.1   3.2 WSW | 257 1623 0.00 0.09 - 4.7   0.1 60.1   7.3 8   1 13.2   0.0
Upper Voltaire Cyn 9/3/26 64.1   0.1 53.5   4.1 52   3 26   1 13.6   3.7 SSW | 194 43.5   10.2 SSE | 164 2151 0.00 0.23 - 1.1   0.0 60.3   2.4 8   1 13.2   0.0
Yerington NW 9/3/26 75.4   3.5 49.5   5.5 54   6 21   4 12.5   1.6 SW | 229 41.7   9.7 W | 264 1629 0.00 0.20 - 7.2   0.0 65.7   2.2 9   0 13.2   0.0
Spanish Springs SW 9/3/26 70.4   2.0 56.4   3.5 59   17 27   7 9.4   0.8 SW | 228 35.2   4.2 SSW | 207 0113 0.00 0.05 - 1.4   0.0 65.0   2.7 7   0 13.2   0.0
Cosgrave 2 8/26/26 94.1   3.1 59.4   0.6 40   15 11   2 5.7   1.4 SSW | 205 26.1   5.0 WSW | 249 1345 0.00 0.00 - 4.0   0.1 82.4   4.3 5   1 13.2   0.0
Winnemucca-Grass Valley 2 9/3/26 74.4   6.5 48.9   5.5 63   2 22   5 6.9   0.2 WSW | 248 31.8   3.5 NNE | 28 1956 0.00 0.14 - 7.7   0.1 64.1   5.7 8   1 13.1   0.0
Winnemucca-Dutch Flat Rd 9/3/26 74.6   6.4 54.3   1.9 50   3 22   6 9.5   0.7 SW | 226 30.8   0.0 SSW | 203 1537 0.00 0.07 - 6.1   0.1 65.6   3.2 5   1 13.2   0.0
Paradise Valley 2 9/3/26 72.5   3.8 52.3   0.7 60   14 26   10 4.9   2.6 SSW | 195 24.2   1.7 SSE | 166 1438 0.00 0.08 - 12.5   0.3 62.5   1.8 6   2 13.2   0.0
Golconda 2 9/3/26 75.1   6.9 53.2   2.2 48   6 21   6 7.7   2.6 WNW | 303 25.7   11.5 SSE | 156 1220 0.00 0.11 - 1.9   0.0 66.9   3.2 7   1 13.1   0.0
Battle Mountain - South 9/3/26 78.6   8.3 52.1   9.7 46   12 16   1 7.5   0.9 WSW | 244 27.1   0.5 WSW | 255 1434 0.00 0.01 - 9.3   0.1 70.9   8.9 4   1 13.1   0.0
Geiger Summit 9/3/26 60.9   3.3 47.0   4.2 100   0 100   0 8.6   3.7 SSW | 208 35.2   14.7 SSW | 193 1446 0.00 0.13 - 6.1   0.0 55.8   5.9 8   1 13.2   0.0
Combs Canyon 3 9/3/26 69.7   1.8 54.2   2.0 45   2 28   4 7.8   0.1 SSW | 210 28.9   1.7 SSE | 164 1051 0.00 0.11 - 1.0   0.0 63.6   1.9 6   1 13.2   0.0
Clear Creek 9/3/26 64.9   0.3 53.2   3.2 50   2 26   1 8.8   1.8 S | 179 31.2   7.6 SE | 140 1302 0.00 0.23 - 3.4   0.0 59.8   0.4 8   0 13.1   0.0
Eastlake 2 9/3/26 67.0   0.1 54.6   2.1 52   0 28   3 8.0   1.6 SSE | 168 29.3   0.7 SSE | 147 2102 0.00 0.11 - 3.4   0.0 62.1   1.4 7   1 13.3   0.0
Lovelock-Colado 2 9/3/26 77.4   5.9 51.3   5.6 65   18 20   1 6.5   0.9 SW | 220 25.0   4.0 SSW | 193 1521 0.00 0.06 - - 66.6   6.1 6   1 13.2   0.0
Spanish Springs NW 9/3/26 68.6   1.5 57.2   4.0 55   11 28   6 7.3   0.5 SW | 225 30.9   7.1 SSW | 206 1517 0.00 0.04 - 12.3   0.2 64.4   1.9 5   1 13.1   0.0
Battle Mountain NW 9/3/26 78.4   9.1 52.3   3.5 46   12 17   1 7.7   0.2 SW | 231 34.2   5.6 S | 172 1419 0.00 0.00 - 8.7   0.1 69.3   5.5 4   1 13.2   0.0
Austin 2 9/3/26 75.0   6.5 36.8   0.5 55   8 16   2 5.9   0.9 SW | 236 37.1   10.7 WSW | 243 1536 0.00 0.24 - 2.4   0.1 61.3   5.2 6   0 13.2   0.0
Elko-Osino 9/3/26 78.6   7.3 52.1   0.2 41   10 15   1 7.0   1.3 SW | 224 27.3   0.8 WSW | 243 1311 0.00 0.00 - 1.4   0.0 68.5   4.5 6   0 13.2   0.0
Elko-Bill Fishpond 2 9/3/26 76.8   7.0 51.7   0.5 39   8 15   0 6.7   0.1 SW | 218 27.4   7.1 W | 259 1250 0.00 0.00 - 3.5   0.0 67.4   5.1 6   0 13.2   0.0
Spring Creek SE 2 9/3/26 77.2   6.5 51.4   3.2 44   14 15   1 7.5   1.6 SSW | 207 29.4   0.4 SSE | 166 1336 0.00 0.00 - 0.2   0.0 65.3   4.4 6   0 13.3   0.0
Spring Creek NW 9/3/26 76.7   6.6 51.7   1.2 41   12 16   2 7.3   0.1 SW | 230 24.5   1.7 S | 190 1303 0.00 0.00 - 2.2   0.0 68.0   4.2 5   0 13.2   0.0
Elko-Moleen 9/3/26 79.2   7.9 47.3   4.5 45   5 15   1 5.9   1.2 W | 265 25.5   1.0 W | 262 1220 0.00 0.00 - 6.2   0.1 67.6   3.8 6   0 13.2   0.0
Elko-West 9/3/26 79.4   8.0 45.4   6.1 50   13 15   1 6.1   1.2 WSW | 239 29.7   5.6 SW | 228 1534 0.00 0.00 - 33.1 65.7   3.9 5   0 13.2   0.1
Elko-Adobe Creek 9/3/26 70.6   7.7 48.4   2.8 46   13 19   1 9.1   0.9 SW | 236 34.4   3.2 SSW | 203 1259 0.00 0.00 - 18.5   0.1 63.3   6.1 6   1 13.2   0.0
Tuscarora SW 9/3/26 72.7   8.2 47.1   4.3 60   25 20   1 7.9   0.4 SW | 217 31.0   2.9 SSW | 192 1356 0.00 0.00 - 6.8   0.1 61.5   5.4 5   1 13.2   0.1
Elko-Monument Peak 9/3/26 72.4   6.6 44.2   6.9 44   9 18   2 6.9   0.1 SSW | 204 29.4   2.5 S | 179 1300 0.00 0.00 - 3.8   0.1 61.6   5.4 5   1 13.2   0.1
Wild Horse 9/3/26 69.6   7.5 47.7   0.8 53   9 21   4 8.9   1.8 SSW | 210 29.7   4.6 SW | 230 1545 0.00 0.00 - 4.5   0.1 61.1   4.2 6   1 13.1   0.7
Max   101.6 77.8 100 100 23.6 - 50.6 - - 0.22 - - 43.2 91.5 43 13.3
Avg   - - - - 8.2 - - - - - - - 7.0 61.8 6 -
Min   50.7 -2.1 21 3 1.0 - 13.2 - - 0.00 - - 0.2 -17.8 0 9.0

Fosberg 6Hr Max

Map

Hourly Data

Fosberg 6Hr Max

Map

Hourly Data